Time,TemperatureF,DewpointF,PressureIn,WindDirection,WindDirectionDegrees,WindSpeedMPH,WindSpeedGustMPH,Humidity,HourlyPrecipIn,Conditions,Clouds,dailyrainin,SoftwareType,DateUTC
2013-02-20 00:00:00,6.7,-0.8,30.29,NW,316,5.4,10.8,71,0.00,,---,0.00,VWS V14.01,2013-02-20 06:00:00,
2013-02-20 00:05:00,6.7,-0.8,30.29,NW,305,5.4,10.8,71,0.00,,---,0.00,VWS V14.01,2013-02-20 06:05:00,
2013-02-20 00:10:00,6.6,-0.9,30.29,NW,305,3.6,9.0,71,0.00,,---,0.00,VWS V14.01,2013-02-20 06:10:00,
2013-02-20 00:15:00,6.6,-0.9,30.29,WNW,283,1.8,7.2,71,0.00,,---,0.00,VWS V14.01,2013-02-20 06:15:00,
2013-02-20 00:20:00,6.5,-1.0,30.29,NW,304,3.6,10.8,71,0.00,,---,0.00,VWS V14.01,2013-02-20 06:20:00,
2013-02-20 00:25:00,6.4,-1.1,30.30,NW,323,5.4,7.2,71,0.00,,---,0.00,VWS V14.01,2013-02-20 06:25:00,
2013-02-20 00:30:00,6.4,-1.1,30.29,NNW,330,5.4,14.4,71,0.00,,---,0.00,VWS V14.01,2013-02-20 06:30:00,
2013-02-20 00:35:00,6.4,-0.8,30.29,NW,308,10.8,10.8,72,0.00,,---,0.00,VWS V14.01,2013-02-20 06:35:00,
2013-02-20 00:40:00,6.3,-0.9,30.29,NW,326,5.4,10.8,72,0.00,,---,0.00,VWS V14.01,2013-02-20 06:40:00,
2013-02-20 00:45:00,6.2,-1.0,30.29,NW,304,3.6,12.6,72,0.00,,---,0.00,VWS V14.01,2013-02-20 06:45:00,
2013-02-20 00:50:00,6.2,-1.0,30.29,WNW,303,3.6,9.0,72,0.00,,---,0.00,VWS V14.01,2013-02-20 06:50:00,
2013-02-20 00:55:00,6.1,-1.1,30.30,WNW,290,3.6,7.2,72,0.00,,---,0.00,VWS V14.01,2013-02-20 06:55:00,
2013-02-20 01:00:00,6.0,-1.2,30.30,WNW,295,7.2,16.2,72,0.00,,---,0.00,VWS V14.01,2013-02-20 07:00:00,
2013-02-20 01:05:00,5.9,-1.3,30.30,WSW,251,3.6,10.8,72,0.00,,---,0.00,VWS V14.01,2013-02-20 07:05:00,
2013-02-20 01:10:00,5.9,-1.3,30.31,NW,322,1.8,7.2,72,0.00,,---,0.00,VWS V14.01,2013-02-20 07:10:00,
2013-02-20 01:14:00,5.8,-1.4,30.31,NW,304,5.4,7.2,72,0.00,,---,0.00,VWS V14.01,2013-02-20 07:14:00,
2013-02-20 01:19:00,5.7,-1.5,30.31,WNW,293,3.6,7.2,72,0.00,,---,0.00,VWS V14.01,2013-02-20 07:19:00,
2013-02-20 01:24:00,5.7,-1.5,30.31,WNW,302,3.6,7.2,72,0.00,,---,0.00,VWS V14.01,2013-02-20 07:24:00,
2013-02-20 01:29:00,5.6,-1.6,30.31,NW,315,3.6,7.2,72,0.00,,---,0.00,VWS V14.01,2013-02-20 07:29:00,
2013-02-20 01:34:00,5.5,-1.7,30.31,West,281,3.6,7.2,72,0.00,,---,0.00,VWS V14.01,2013-02-20 07:34:00,
2013-02-20 01:39:00,5.5,-1.7,30.31,NW,312,1.8,10.8,72,0.00,,---,0.00,VWS V14.01,2013-02-20 07:39:00,
2013-02-20 01:44:00,5.5,-1.7,30.31,WNW,283,3.6,7.2,72,0.00,,---,0.00,VWS V14.01,2013-02-20 07:44:00,
2013-02-20 01:49:00,5.5,-1.7,30.32,NNW,330,7.2,10.8,72,0.00,,---,0.00,VWS V14.01,2013-02-20 07:49:00,
2013-02-20 01:54:00,5.4,-1.8,30.32,WNW,302,1.8,5.4,72,0.00,,---,0.00,VWS V14.01,2013-02-20 07:54:00,
2013-02-20 01:59:00,5.3,-1.6,30.33,NW,311,3.6,9.0,73,0.00,,---,0.00,VWS V14.01,2013-02-20 07:59:00,
2013-02-20 02:05:00,5.2,-1.7,30.33,NW,323,5.4,7.2,73,0.00,,---,0.00,VWS V14.01,2013-02-20 08:05:00,
2013-02-20 02:10:00,5.3,-1.6,30.33,NW,309,3.6,9.0,73,0.00,,---,0.00,VWS V14.01,2013-02-20 08:10:00,
2013-02-20 02:15:00,5.2,-1.7,30.33,NW,304,1.8,7.2,73,0.00,,---,0.00,VWS V14.01,2013-02-20 08:15:00,
2013-02-20 02:20:00,5.2,-1.7,30.33,NW,308,3.6,10.8,73,0.00,,---,0.00,VWS V14.01,2013-02-20 08:20:00,
2013-02-20 02:25:00,5.1,-1.8,30.33,NNW,330,3.6,5.4,73,0.00,,---,0.00,VWS V14.01,2013-02-20 08:25:00,
2013-02-20 02:30:00,5.1,-1.8,30.33,NW,305,3.6,10.8,73,0.00,,---,0.00,VWS V14.01,2013-02-20 08:30:00,
2013-02-20 02:35:00,5.1,-1.8,30.33,NNW,335,5.4,9.0,73,0.00,,---,0.00,VWS V14.01,2013-02-20 08:35:00,
2013-02-20 02:40:00,5.1,-1.8,30.33,WNW,302,3.6,7.2,73,0.00,,---,0.00,VWS V14.01,2013-02-20 08:40:00,
2013-02-20 02:45:00,5.0,-1.9,30.33,NW,316,3.6,9.0,73,0.00,,---,0.00,VWS V14.01,2013-02-20 08:45:00,
2013-02-20 02:50:00,4.9,-2.0,30.34,WNW,293,1.8,7.2,73,0.00,,---,0.00,VWS V14.01,2013-02-20 08:50:00,
2013-02-20 02:55:00,4.9,-2.0,30.34,WNW,292,1.8,5.4,73,0.00,,---,0.00,VWS V14.01,2013-02-20 08:55:00,
2013-02-20 03:00:00,4.8,-2.1,30.34,NW,314,1.8,5.4,73,0.00,,---,0.00,VWS V14.01,2013-02-20 09:00:00,
2013-02-20 03:05:00,4.7,-2.2,30.33,West,269,1.8,7.2,73,0.00,,---,0.00,VWS V14.01,2013-02-20 09:05:00,
2013-02-20 03:10:00,4.7,-1.9,30.34,WNW,302,3.6,7.2,73,0.00,,---,0.00,VWS V14.01,2013-02-20 09:10:00,
2013-02-20 03:15:00,4.6,-2.0,30.34,WNW,295,1.8,7.2,73,0.00,,---,0.00,VWS V14.01,2013-02-20 09:15:00,
2013-02-20 03:20:00,4.6,-2.0,30.34,WNW,290,3.6,7.2,73,0.00,,---,0.00,VWS V14.01,2013-02-20 09:20:00,
2013-02-20 03:25:00,4.6,-2.0,30.34,NNW,327,5.4,5.4,73,0.00,,---,0.00,VWS V14.01,2013-02-20 09:25:00,
2013-02-20 03:30:00,4.6,-2.0,30.34,NW,316,3.6,5.4,73,0.00,,---,0.00,VWS V14.01,2013-02-20 09:30:00,
2013-02-20 03:35:00,4.6,-2.0,30.34,NW,309,3.6,7.2,73,0.00,,---,0.00,VWS V14.01,2013-02-20 09:35:00,
2013-02-20 03:40:00,4.5,-2.1,30.34,WNW,294,1.8,5.4,73,0.00,,---,0.00,VWS V14.01,2013-02-20 09:40:00,
2013-02-20 03:45:00,4.5,-2.1,30.34,NW,312,3.6,7.2,73,0.00,,---,0.00,VWS V14.01,2013-02-20 09:45:00,
2013-02-20 03:50:00,4.5,-2.1,30.34,NW,317,5.4,5.4,73,0.00,,---,0.00,VWS V14.01,2013-02-20 09:50:00,
2013-02-20 03:55:00,4.5,-2.1,30.34,WNW,299,1.8,5.4,73,0.00,,---,0.00,VWS V14.01,2013-02-20 09:55:00,
2013-02-20 04:00:00,4.4,-2.2,30.34,NW,323,9.0,9.0,73,0.00,,---,0.00,VWS V14.01,2013-02-20 10:00:00,
2013-02-20 04:05:00,4.4,-2.2,30.34,NNW,335,1.8,5.4,73,0.00,,---,0.00,VWS V14.01,2013-02-20 10:05:00,
2013-02-20 04:10:00,4.3,-2.3,30.34,WNW,303,1.8,3.6,73,0.00,,---,0.00,VWS V14.01,2013-02-20 10:10:00,
2013-02-20 04:15:00,4.3,-2.0,30.34,NNW,330,5.4,7.2,74,0.00,,---,0.00,VWS V14.01,2013-02-20 10:15:00,
2013-02-20 04:20:00,4.2,-2.1,30.34,WNW,300,3.6,3.6,74,0.00,,---,0.00,VWS V14.01,2013-02-20 10:20:00,
2013-02-20 04:25:00,4.2,-2.1,30.34,NNW,330,9.0,9.0,74,0.00,,---,0.00,VWS V14.01,2013-02-20 10:25:00,
2013-02-20 04:30:00,4.2,-2.1,30.34,NW,314,3.6,5.4,74,0.00,,---,0.00,VWS V14.01,2013-02-20 10:30:00,
2013-02-20 04:35:00,4.3,-2.0,30.35,WNW,284,1.8,3.6,74,0.00,,---,0.00,VWS V14.01,2013-02-20 10:35:00,
2013-02-20 04:40:00,4.3,-2.0,30.35,WNW,303,5.4,5.4,74,0.00,,---,0.00,VWS V14.01,2013-02-20 10:40:00,
2013-02-20 04:44:00,4.2,-2.1,30.35,WNW,302,1.8,5.4,74,0.00,,---,0.00,VWS V14.01,2013-02-20 10:44:00,
2013-02-20 04:49:00,4.2,-2.4,30.35,WNW,300,3.6,5.4,73,0.00,,---,0.00,VWS V14.01,2013-02-20 10:49:00,
2013-02-20 04:54:00,4.2,-2.1,30.35,NW,311,0.0,9.0,74,0.00,,---,0.00,VWS V14.01,2013-02-20 10:54:00,
2013-02-20 04:59:00,4.1,-2.2,30.34,NW,318,1.8,5.4,74,0.00,,---,0.00,VWS V14.01,2013-02-20 10:59:00,
2013-02-20 05:04:00,4.2,-2.1,30.34,NW,318,5.4,7.2,74,0.00,,---,0.00,VWS V14.01,2013-02-20 11:04:00,
2013-02-20 05:09:00,4.2,-2.1,30.34,WNW,294,1.8,3.6,74,0.00,,---,0.00,VWS V14.01,2013-02-20 11:09:00,
2013-02-20 05:14:00,4.1,-2.2,30.34,NNW,330,1.8,7.2,74,0.00,,---,0.00,VWS V14.01,2013-02-20 11:14:00,
2013-02-20 05:19:00,4.2,-2.1,30.34,WNW,284,1.8,5.4,74,0.00,,---,0.00,VWS V14.01,2013-02-20 11:19:00,
2013-02-20 05:24:00,4.1,-2.2,30.34,WNW,283,3.6,3.6,74,0.00,,---,0.00,VWS V14.01,2013-02-20 11:24:00,
2013-02-20 05:29:00,4.1,-2.2,30.34,WNW,293,1.8,5.4,74,0.00,,---,0.00,VWS V14.01,2013-02-20 11:29:00,
2013-02-20 05:34:00,4.1,-2.2,30.35,WNW,297,1.8,5.4,74,0.00,,---,0.00,VWS V14.01,2013-02-20 11:34:00,
2013-02-20 05:39:00,4.1,-2.2,30.35,NW,311,1.8,3.6,74,0.00,,---,0.00,VWS V14.01,2013-02-20 11:39:00,
2013-02-20 05:44:00,4.1,-2.2,30.35,NW,326,0.0,3.6,74,0.00,,---,0.00,VWS V14.01,2013-02-20 11:44:00,
2013-02-20 05:49:00,3.9,-2.4,30.35,NW,315,0.0,3.6,74,0.00,,---,0.00,VWS V14.01,2013-02-20 11:49:00,
2013-02-20 05:54:00,3.9,-2.4,30.34,NW,311,3.6,3.6,74,0.00,,---,0.00,VWS V14.01,2013-02-20 11:54:00,
2013-02-20 05:59:00,3.9,-2.2,30.34,WNW,288,1.8,5.4,75,0.00,,---,0.00,VWS V14.01,2013-02-20 11:59:00,
2013-02-20 06:04:00,3.9,-2.2,30.34,WSW,250,1.8,5.4,75,0.00,,---,0.00,VWS V14.01,2013-02-20 12:04:00,
2013-02-20 06:09:00,4.0,-2.3,30.35,WNW,295,3.6,5.4,74,0.00,,---,0.00,VWS V14.01,2013-02-20 12:09:00,
2013-02-20 06:14:00,4.0,-2.3,30.34,WNW,285,1.8,5.4,74,0.00,,---,0.00,VWS V14.01,2013-02-20 12:14:00,
2013-02-20 06:19:00,4.0,-2.3,30.35,NW,304,0.0,1.8,74,0.00,,---,0.00,VWS V14.01,2013-02-20 12:19:00,
2013-02-20 06:24:00,4.0,-2.3,30.35,NW,321,1.8,3.6,74,0.00,,---,0.00,VWS V14.01,2013-02-20 12:24:00,
2013-02-20 06:29:00,4.0,-2.3,30.35,West,266,0.0,3.6,74,0.00,,---,0.00,VWS V14.01,2013-02-20 12:29:00,
2013-02-20 06:34:00,4.0,-2.3,30.35,West,281,0.0,5.4,74,0.00,,---,0.00,VWS V14.01,2013-02-20 12:34:00,
2013-02-20 06:39:00,3.9,-2.4,30.35,NW,319,3.6,3.6,74,0.00,,---,0.00,VWS V14.01,2013-02-20 12:39:00,
2013-02-20 06:44:00,4.0,-2.3,30.35,NW,314,3.6,5.4,74,0.00,,---,0.00,VWS V14.01,2013-02-20 12:44:00,
2013-02-20 06:49:00,4.0,-2.6,30.36,NW,304,1.8,3.6,73,0.00,,---,0.00,VWS V14.01,2013-02-20 12:49:00,
2013-02-20 06:54:00,4.0,-2.3,30.36,NW,304,0.0,1.8,74,0.00,,---,0.00,VWS V14.01,2013-02-20 12:54:00,
2013-02-20 06:59:00,4.0,-2.3,30.36,NW,321,1.8,3.6,74,0.00,,---,0.00,VWS V14.01,2013-02-20 12:59:00,
2013-02-20 07:04:00,4.0,-2.3,30.36,West,280,1.8,3.6,74,0.00,,---,0.00,VWS V14.01,2013-02-20 13:04:00,
2013-02-20 07:09:00,4.1,-2.2,30.37,WNW,285,1.8,5.4,74,0.00,,---,0.00,VWS V14.01,2013-02-20 13:09:00,
2013-02-20 07:14:00,4.2,-2.1,30.36,NW,314,3.6,7.2,74,0.00,,---,0.00,VWS V14.01,2013-02-20 13:14:00,
2013-02-20 07:19:00,4.2,-2.1,30.36,NW,314,1.8,5.4,74,0.00,,---,0.00,VWS V14.01,2013-02-20 13:19:00,
2013-02-20 07:24:00,4.4,-1.9,30.37,NNW,327,5.4,7.2,74,0.00,,---,0.00,VWS V14.01,2013-02-20 13:24:00,
2013-02-20 07:29:00,4.6,-1.7,30.37,WNW,302,1.8,7.2,74,0.00,,---,0.00,VWS V14.01,2013-02-20 13:29:00,
2013-02-20 07:34:00,4.8,-1.5,30.37,WNW,302,0.0,5.4,74,0.00,,---,0.00,VWS V14.01,2013-02-20 13:34:00,
2013-02-20 07:39:00,5.1,-1.2,30.37,NW,314,3.6,5.4,74,0.00,,---,0.00,VWS V14.01,2013-02-20 13:39:00,
2013-02-20 07:44:00,5.3,-1.3,30.37,NW,321,1.8,5.4,73,0.00,,---,0.00,VWS V14.01,2013-02-20 13:44:00,
2013-02-20 07:49:00,5.5,-1.1,30.37,NW,319,1.8,7.2,73,0.00,,---,0.00,VWS V14.01,2013-02-20 13:49:00,
2013-02-20 07:54:00,5.9,-0.7,30.37,NW,321,3.6,3.6,73,0.00,,---,0.00,VWS V14.01,2013-02-20 13:54:00,
2013-02-20 07:59:00,6.3,-0.6,30.37,North,359,1.8,5.4,73,0.00,,---,0.00,VWS V14.01,2013-02-20 13:59:00,
2013-02-20 08:04:00,6.5,-0.4,30.37,North,9,3.6,7.2,73,0.00,,---,0.00,VWS V14.01,2013-02-20 14:04:00,
2013-02-20 08:09:00,6.8,-0.4,30.37,NNW,330,3.6,9.0,72,0.00,,---,0.00,VWS V14.01,2013-02-20 14:09:00,
2013-02-20 08:14:00,7.1,-0.4,30.38,NNW,336,5.4,10.8,71,0.00,,---,0.00,VWS V14.01,2013-02-20 14:14:00,
2013-02-20 08:19:00,7.4,-0.1,30.38,NW,308,3.6,7.2,71,0.00,,---,0.00,VWS V14.01,2013-02-20 14:19:00,
2013-02-20 08:24:00,7.7,0.2,30.38,NW,318,3.6,9.0,71,0.00,,---,0.00,VWS V14.01,2013-02-20 14:24:00,
2013-02-20 08:29:00,8.0,0.2,30.38,NNW,330,1.8,7.2,70,0.00,,---,0.00,VWS V14.01,2013-02-20 14:29:00,
2013-02-20 08:34:00,8.4,0.6,30.38,WNW,299,3.6,9.0,70,0.00,,---,0.00,VWS V14.01,2013-02-20 14:34:00,
2013-02-20 08:39:00,8.5,0.4,30.38,North,7,3.6,9.0,69,0.00,,---,0.00,VWS V14.01,2013-02-20 14:39:00,
2013-02-20 08:44:00,8.8,0.7,30.38,NNE,15,5.4,9.0,69,0.00,,---,0.00,VWS V14.01,2013-02-20 14:44:00,
2013-02-20 08:49:00,9.3,1.1,30.38,NNW,330,3.6,5.4,69,0.00,,---,0.00,VWS V14.01,2013-02-20 14:49:00,
2013-02-20 08:54:00,9.4,0.9,30.38,WNW,300,5.4,7.2,68,0.00,,---,0.00,VWS V14.01,2013-02-20 14:54:00,
2013-02-20 08:59:00,9.7,1.2,30.38,NNE,12,0.0,10.8,68,0.00,,---,0.00,VWS V14.01,2013-02-20 14:59:00,
2013-02-20 09:04:00,10.0,1.2,30.38,NW,321,7.2,7.2,67,0.00,,---,0.00,VWS V14.01,2013-02-20 15:04:00,
2013-02-20 09:09:00,10.4,1.9,30.38,WNW,297,3.6,7.2,68,0.00,,---,0.00,VWS V14.01,2013-02-20 15:09:00,
2013-02-20 09:14:00,10.3,1.2,30.38,WNW,302,7.2,9.0,66,0.00,,---,0.00,VWS V14.01,2013-02-20 15:14:00,
2013-02-20 09:19:00,10.5,2.0,30.38,North,9,3.6,9.0,68,0.00,,---,0.00,VWS V14.01,2013-02-20 15:19:00,
2013-02-20 09:24:00,10.8,2.0,30.38,NW,308,0.0,5.4,67,0.00,,---,0.00,VWS V14.01,2013-02-20 15:24:00,
2013-02-20 09:29:00,11.0,2.2,30.38,NW,306,3.6,7.2,67,0.00,,---,0.00,VWS V14.01,2013-02-20 15:29:00,
2013-02-20 09:34:00,11.4,2.6,30.39,NW,317,7.2,9.0,67,0.00,,---,0.00,VWS V14.01,2013-02-20 15:34:00,
2013-02-20 09:39:00,11.5,2.7,30.39,WNW,297,3.6,5.4,67,0.00,,---,0.00,VWS V14.01,2013-02-20 15:39:00,
2013-02-20 09:44:00,11.5,2.4,30.39,NW,318,5.4,5.4,66,0.00,,---,0.00,VWS V14.01,2013-02-20 15:44:00,
2013-02-20 09:49:00,11.8,2.7,30.39,NE,37,1.8,9.0,66,0.00,,---,0.00,VWS V14.01,2013-02-20 15:49:00,
2013-02-20 09:54:00,11.9,2.8,30.39,NW,318,3.6,9.0,66,0.00,,---,0.00,VWS V14.01,2013-02-20 15:54:00,
2013-02-20 09:59:00,12.2,3.3,30.39,WNW,290,1.8,7.2,67,0.00,,---,0.00,VWS V14.01,2013-02-20 15:59:00,
2013-02-20 10:04:00,12.7,3.8,30.39,NW,321,3.6,5.4,67,0.00,,---,0.00,VWS V14.01,2013-02-20 16:04:00,
2013-02-20 10:09:00,13.0,3.8,30.39,NW,315,3.6,5.4,66,0.00,,---,0.00,VWS V14.01,2013-02-20 16:09:00,
2013-02-20 10:14:00,13.5,4.3,30.39,NW,313,3.6,5.4,66,0.00,,---,0.00,VWS V14.01,2013-02-20 16:14:00,
2013-02-20 10:19:00,13.9,4.7,30.39,NNW,330,5.4,5.4,66,0.00,,---,0.00,VWS V14.01,2013-02-20 16:19:00,
2013-02-20 10:24:00,13.9,4.4,30.39,NW,308,7.2,9.0,65,0.00,,---,0.00,VWS V14.01,2013-02-20 16:24:00,
2013-02-20 10:29:00,14.1,4.6,30.40,NW,307,3.6,7.2,65,0.00,,---,0.00,VWS V14.01,2013-02-20 16:29:00,
2013-02-20 10:34:00,14.3,4.7,30.39,West,281,1.8,9.0,65,0.00,,---,0.00,VWS V14.01,2013-02-20 16:34:00,
2013-02-20 10:39:00,14.9,5.3,30.40,West,260,0.0,7.2,65,0.00,,---,0.00,VWS V14.01,2013-02-20 16:39:00,
2013-02-20 10:44:00,15.6,5.3,30.40,NNE,20,5.4,9.0,63,0.00,,---,0.00,VWS V14.01,2013-02-20 16:44:00,
2013-02-20 10:49:00,15.6,5.3,30.40,WSW,250,5.4,7.2,63,0.00,,---,0.00,VWS V14.01,2013-02-20 16:49:00,
2013-02-20 10:54:00,15.5,4.9,30.40,NW,307,3.6,9.0,62,0.00,,---,0.00,VWS V14.01,2013-02-20 16:54:00,
2013-02-20 10:59:00,15.6,5.3,30.39,West,276,1.8,5.4,63,0.00,,---,0.00,VWS V14.01,2013-02-20 16:59:00,
2013-02-20 11:04:00,16.1,5.8,30.39,SSW,211,3.6,5.4,63,0.00,,---,0.00,VWS V14.01,2013-02-20 17:04:00,
2013-02-20 11:09:00,16.4,6.1,30.39,NNW,330,5.4,7.2,63,0.00,,---,0.00,VWS V14.01,2013-02-20 17:09:00,
2013-02-20 11:14:00,16.6,6.6,30.38,NNE,27,5.4,7.2,64,0.00,,---,0.00,VWS V14.01,2013-02-20 17:14:00,
2013-02-20 11:19:00,16.9,6.3,30.38,NW,309,5.4,7.2,62,0.00,,---,0.00,VWS V14.01,2013-02-20 17:19:00,
2013-02-20 11:24:00,17.0,6.3,30.38,NNE,20,1.8,7.2,62,0.00,,---,0.00,VWS V14.01,2013-02-20 17:24:00,
2013-02-20 11:29:00,17.3,6.6,30.38,WNW,300,3.6,7.2,62,0.00,,---,0.00,VWS V14.01,2013-02-20 17:29:00,
2013-02-20 11:34:00,17.8,6.8,30.39,SW,224,0.0,5.4,61,0.00,,---,0.00,VWS V14.01,2013-02-20 17:34:00,
2013-02-20 11:39:00,18.3,7.6,30.39,NW,316,1.8,5.4,62,0.00,,---,0.00,VWS V14.01,2013-02-20 17:39:00,
2013-02-20 11:44:00,18.2,7.2,30.39,NW,323,5.4,7.2,61,0.00,,---,0.00,VWS V14.01,2013-02-20 17:44:00,
2013-02-20 11:49:00,18.2,7.5,30.40,NW,311,5.4,9.0,62,0.00,,---,0.00,VWS V14.01,2013-02-20 17:49:00,
2013-02-20 11:54:00,18.4,8.0,30.41,WSW,238,1.8,3.6,63,0.00,,---,0.00,VWS V14.01,2013-02-20 17:54:00,
2013-02-20 11:59:00,18.6,7.9,30.41,SSW,197,1.8,9.0,62,0.00,,---,0.00,VWS V14.01,2013-02-20 17:59:00,
2013-02-20 12:04:00,19.0,8.2,30.42,NW,309,3.6,12.6,62,0.00,,---,0.00,VWS V14.01,2013-02-20 18:04:00,
2013-02-20 12:09:00,19.0,8.2,30.41,NW,321,9.0,9.0,62,0.00,,---,0.00,VWS V14.01,2013-02-20 18:09:00,
2013-02-20 12:14:00,18.7,8.6,30.41,SSW,204,3.6,9.0,64,0.00,,---,0.00,VWS V14.01,2013-02-20 18:14:00,
2013-02-20 12:19:00,18.8,8.7,30.41,WSW,256,5.4,10.8,64,0.00,,---,0.00,VWS V14.01,2013-02-20 18:19:00,
2013-02-20 12:24:00,18.8,8.1,30.42,West,259,3.6,7.2,62,0.00,,---,0.00,VWS V14.01,2013-02-20 18:24:00,
2013-02-20 12:29:00,19.0,8.9,30.41,WNW,288,5.4,9.0,64,0.00,,---,0.00,VWS V14.01,2013-02-20 18:29:00,
2013-02-20 12:34:00,19.1,9.0,30.41,WSW,253,3.6,9.0,64,0.00,,---,0.00,VWS V14.01,2013-02-20 18:34:00,
2013-02-20 12:39:00,19.2,8.8,30.41,WNW,293,5.4,12.6,63,0.00,,---,0.00,VWS V14.01,2013-02-20 18:39:00,
2013-02-20 12:44:00,19.2,8.8,30.42,WSW,256,7.2,9.0,63,0.00,,---,0.00,VWS V14.01,2013-02-20 18:44:00,
2013-02-20 12:49:00,19.3,9.5,30.41,NW,321,7.2,7.2,65,0.00,,---,0.00,VWS V14.01,2013-02-20 18:49:00,
2013-02-20 12:54:00,19.4,9.3,30.41,WSW,249,3.6,10.8,64,0.00,,---,0.00,VWS V14.01,2013-02-20 18:54:00,
2013-02-20 12:59:00,19.7,9.9,30.41,NW,314,7.2,10.8,65,0.00,,---,0.00,VWS V14.01,2013-02-20 18:59:00,
2013-02-20 13:04:00,19.8,9.7,30.41,West,259,3.6,9.0,64,0.00,,---,0.00,VWS V14.01,2013-02-20 19:04:00,
2013-02-20 13:09:00,19.9,9.8,30.40,West,264,3.6,9.0,64,0.00,,---,0.00,VWS V14.01,2013-02-20 19:09:00,
2013-02-20 13:14:00,20.0,9.9,30.40,WSW,248,9.0,9.0,64,0.00,,---,0.00,VWS V14.01,2013-02-20 19:14:00,
2013-02-20 13:19:00,20.1,9.9,30.40,WSW,256,1.8,7.2,64,0.00,,---,0.00,VWS V14.01,2013-02-20 19:19:00,
2013-02-20 13:24:00,20.4,10.6,30.40,WNW,293,1.8,7.2,65,0.00,,---,0.00,VWS V14.01,2013-02-20 19:24:00,
2013-02-20 13:29:00,20.5,10.3,30.39,WNW,285,3.6,7.2,64,0.00,,---,0.00,VWS V14.01,2013-02-20 19:29:00,
2013-02-20 13:34:00,20.4,9.9,30.38,NW,316,5.4,12.6,63,0.00,,---,0.00,VWS V14.01,2013-02-20 19:34:00,
2013-02-20 13:39:00,20.7,10.5,30.38,West,278,1.8,7.2,64,0.00,,---,0.00,VWS V14.01,2013-02-20 19:39:00,
2013-02-20 13:44:00,20.8,10.6,30.37,North,6,3.6,9.0,64,0.00,,---,0.00,VWS V14.01,2013-02-20 19:44:00,
2013-02-20 13:49:00,20.3,10.1,30.37,NW,307,3.6,9.0,64,0.00,,---,0.00,VWS V14.01,2013-02-20 19:49:00,
2013-02-20 13:54:00,20.5,11.0,30.36,NW,310,7.2,7.2,66,0.00,,---,0.00,VWS V14.01,2013-02-20 19:54:00,
2013-02-20 13:59:00,20.7,11.2,30.36,NW,315,7.2,9.0,66,0.00,,---,0.00,VWS V14.01,2013-02-20 19:59:00,
2013-02-20 14:04:00,20.6,11.1,30.35,NW,326,5.4,7.2,66,0.00,,---,0.00,VWS V14.01,2013-02-20 20:04:00,
2013-02-20 14:09:00,20.7,10.9,30.36,NW,316,3.6,7.2,65,0.00,,---,0.00,VWS V14.01,2013-02-20 20:09:00,
2013-02-20 14:14:00,20.9,11.7,30.36,WNW,285,1.8,7.2,67,0.00,,---,0.00,VWS V14.01,2013-02-20 20:14:00,
2013-02-20 14:19:00,21.1,11.6,30.35,NW,322,9.0,9.0,66,0.00,,---,0.00,VWS V14.01,2013-02-20 20:19:00,
2013-02-20 14:24:00,21.3,12.1,30.35,NNE,16,3.6,7.2,67,0.00,,---,0.00,VWS V14.01,2013-02-20 20:24:00,
2013-02-20 14:29:00,21.5,11.6,30.35,NW,309,3.6,7.2,65,0.00,,---,0.00,VWS V14.01,2013-02-20 20:29:00,
2013-02-20 14:34:00,21.5,11.6,30.35,NW,314,5.4,7.2,65,0.00,,---,0.00,VWS V14.01,2013-02-20 20:34:00,
2013-02-20 14:39:00,21.4,11.5,30.34,NW,308,3.6,9.0,65,0.00,,---,0.00,VWS V14.01,2013-02-20 20:39:00,
2013-02-20 14:44:00,21.5,12.2,30.34,NNW,346,3.6,7.2,67,0.00,,---,0.00,VWS V14.01,2013-02-20 20:44:00,
2013-02-20 14:49:00,21.6,12.0,30.34,NW,321,3.6,7.2,66,0.00,,---,0.00,VWS V14.01,2013-02-20 20:49:00,
2013-02-20 14:54:00,21.8,12.2,30.34,North,6,7.2,7.2,66,0.00,,---,0.00,VWS V14.01,2013-02-20 20:54:00,
2013-02-20 14:59:00,21.8,12.2,30.34,NW,325,1.8,7.2,66,0.00,,---,0.00,VWS V14.01,2013-02-20 20:59:00,
2013-02-20 15:04:00,21.7,12.1,30.34,NW,309,3.6,7.2,66,0.00,,---,0.00,VWS V14.01,2013-02-20 21:04:00,
2013-02-20 15:09:00,21.6,12.0,30.34,ENE,57,1.8,9.0,66,0.00,,---,0.00,VWS V14.01,2013-02-20 21:09:00,
2013-02-20 15:14:00,21.7,12.1,30.34,West,280,3.6,5.4,66,0.00,,---,0.00,VWS V14.01,2013-02-20 21:14:00,
2013-02-20 15:19:00,21.8,12.5,30.34,NW,314,3.6,5.4,67,0.00,,---,0.00,VWS V14.01,2013-02-20 21:19:00,
2013-02-20 15:24:00,22.0,12.7,30.34,West,269,1.8,5.4,67,0.00,,---,0.00,VWS V14.01,2013-02-20 21:24:00,
2013-02-20 15:29:00,22.4,12.8,30.34,NW,323,1.8,3.6,66,0.00,,---,0.00,VWS V14.01,2013-02-20 21:29:00,
2013-02-20 15:34:00,22.3,12.7,30.34,NNE,12,3.6,9.0,66,0.00,,---,0.00,VWS V14.01,2013-02-20 21:34:00,
2013-02-20 15:39:00,22.3,13.0,30.34,NE,41,1.8,5.4,67,0.00,,---,0.00,VWS V14.01,2013-02-20 21:39:00,
2013-02-20 15:44:00,22.4,12.8,30.34,NW,321,3.6,5.4,66,0.00,,---,0.00,VWS V14.01,2013-02-20 21:44:00,
2013-02-20 15:49:00,22.4,13.1,30.34,NW,321,3.6,7.2,67,0.00,,---,0.00,VWS V14.01,2013-02-20 21:49:00,
2013-02-20 15:54:00,22.2,12.9,30.34,WNW,285,3.6,5.4,67,0.00,,---,0.00,VWS V14.01,2013-02-20 21:54:00,
2013-02-20 15:59:00,22.4,13.1,30.34,NNW,340,0.0,1.8,67,0.00,,---,0.00,VWS V14.01,2013-02-20 21:59:00,
2013-02-20 16:04:00,22.5,12.9,30.34,East,98,1.8,3.6,66,0.00,,---,0.00,VWS V14.01,2013-02-20 22:04:00,
2013-02-20 16:09:00,22.5,12.9,30.34,North,360,1.8,5.4,66,0.00,,---,0.00,VWS V14.01,2013-02-20 22:09:00,
2013-02-20 16:14:00,22.4,12.8,30.34,NW,306,1.8,3.6,66,0.00,,---,0.00,VWS V14.01,2013-02-20 22:14:00,
2013-02-20 16:19:00,22.2,12.3,30.34,North,352,0.0,7.2,65,0.00,,---,0.00,VWS V14.01,2013-02-20 22:19:00,
2013-02-20 16:24:00,22.1,12.5,30.34,WNW,293,1.8,3.6,66,0.00,,---,0.00,VWS V14.01,2013-02-20 22:24:00,
2013-02-20 16:29:00,21.9,12.3,30.34,NW,311,0.0,3.6,66,0.00,,---,0.00,VWS V14.01,2013-02-20 22:29:00,
2013-02-20 16:34:00,21.8,12.2,30.34,NW,311,0.0,5.4,66,0.00,,---,0.00,VWS V14.01,2013-02-20 22:34:00,
2013-02-20 16:39:00,21.8,12.5,30.34,NNW,333,0.0,1.8,67,0.00,,---,0.00,VWS V14.01,2013-02-20 22:39:00,
2013-02-20 16:44:00,21.8,12.5,30.34,ESE,105,0.0,3.6,67,0.00,,---,0.00,VWS V14.01,2013-02-20 22:44:00,
2013-02-20 16:49:00,21.7,12.4,30.34,NNE,16,1.8,3.6,67,0.00,,---,0.00,VWS V14.01,2013-02-20 22:49:00,
2013-02-20 16:54:00,21.5,12.2,30.34,North,7,0.0,5.4,67,0.00,,---,0.00,VWS V14.01,2013-02-20 22:54:00,
2013-02-20 16:59:00,21.5,12.6,30.35,ESE,115,0.0,0.0,68,0.00,,---,0.00,VWS V14.01,2013-02-20 22:59:00,
2013-02-20 17:04:00,21.4,12.8,30.35,ESE,115,0.0,0.0,69,0.00,,---,0.00,VWS V14.01,2013-02-20 23:04:00,
2013-02-20 17:09:00,21.3,12.7,30.35,ESE,115,0.0,1.8,69,0.00,,---,0.00,VWS V14.01,2013-02-20 23:09:00,
2013-02-20 17:14:00,21.0,12.1,30.35,ESE,115,0.0,0.0,68,0.00,,---,0.00,VWS V14.01,2013-02-20 23:14:00,
2013-02-20 17:19:00,20.8,12.2,30.35,ESE,115,0.0,0.0,69,0.00,,---,0.00,VWS V14.01,2013-02-20 23:19:00,
2013-02-20 17:24:00,20.7,12.4,30.35,ESE,116,0.0,0.0,70,0.00,,---,0.00,VWS V14.01,2013-02-20 23:24:00,
2013-02-20 17:29:00,20.5,12.2,30.35,ESE,116,0.0,0.0,70,0.00,,---,0.00,VWS V14.01,2013-02-20 23:29:00,
2013-02-20 17:34:00,20.2,11.9,30.35,ESE,115,0.0,0.0,70,0.00,,---,0.00,VWS V14.01,2013-02-20 23:34:00,
2013-02-20 17:39:00,19.8,11.8,30.35,ESE,115,0.0,0.0,71,0.00,,---,0.00,VWS V14.01,2013-02-20 23:39:00,
2013-02-20 17:44:00,19.3,11.4,30.35,ESE,115,0.0,0.0,71,0.00,,---,0.00,VWS V14.01,2013-02-20 23:44:00,
2013-02-20 17:49:00,19.0,11.6,30.35,ESE,115,0.0,0.0,73,0.00,,---,0.00,VWS V14.01,2013-02-20 23:49:00,
2013-02-20 17:54:00,18.8,11.7,30.35,ESE,115,0.0,0.0,73,0.00,,---,0.00,VWS V14.01,2013-02-20 23:54:00,
2013-02-20 17:59:00,18.6,11.5,30.35,ESE,115,0.0,0.0,73,0.00,,---,0.00,VWS V14.01,2013-02-20 23:59:00,
2013-02-20 18:04:00,18.2,11.2,30.35,ESE,115,0.0,0.0,73,0.00,,---,0.00,VWS V14.01,2013-02-21 00:04:00,
2013-02-20 18:08:00,17.8,11.1,30.35,ESE,116,0.0,0.0,74,0.00,,---,0.00,VWS V14.01,2013-02-21 00:08:00,
2013-02-20 18:13:00,17.5,11.0,30.35,ESE,116,0.0,0.0,75,0.00,,---,0.00,VWS V14.01,2013-02-21 00:13:00,
2013-02-20 18:18:00,17.3,11.1,30.35,ESE,116,0.0,0.0,76,0.00,,---,0.00,VWS V14.01,2013-02-21 00:18:00,
2013-02-20 18:24:00,17.1,10.9,30.35,ESE,115,0.0,0.0,76,0.00,,---,0.00,VWS V14.01,2013-02-21 00:24:00,
2013-02-20 18:29:00,16.9,11.0,30.34,ESE,115,0.0,0.0,77,0.00,,---,0.00,VWS V14.01,2013-02-21 00:29:00,
2013-02-20 18:34:00,16.6,10.7,30.34,ESE,116,0.0,0.0,77,0.00,,---,0.00,VWS V14.01,2013-02-21 00:34:00,
2013-02-20 18:39:00,16.4,10.8,30.34,ESE,116,0.0,0.0,78,0.00,,---,0.00,VWS V14.01,2013-02-21 00:39:00,
2013-02-20 18:44:00,16.3,11.0,30.34,ESE,116,0.0,0.0,79,0.00,,---,0.00,VWS V14.01,2013-02-21 00:44:00,
2013-02-20 18:49:00,16.3,11.0,30.34,ESE,116,0.0,0.0,79,0.00,,---,0.00,VWS V14.01,2013-02-21 00:49:00,
2013-02-20 18:54:00,16.0,10.7,30.34,ESE,116,0.0,0.0,79,0.00,,---,0.00,VWS V14.01,2013-02-21 00:54:00,
2013-02-20 18:59:00,15.7,10.4,30.34,ESE,115,0.0,0.0,79,0.00,,---,0.00,VWS V14.01,2013-02-21 00:59:00,
2013-02-20 19:04:00,15.6,10.5,30.35,ESE,116,0.0,0.0,80,0.00,,---,0.00,VWS V14.01,2013-02-21 01:04:00,
2013-02-20 19:09:00,15.7,10.6,30.35,ESE,103,0.0,1.8,80,0.00,,---,0.00,VWS V14.01,2013-02-21 01:09:00,
2013-02-20 19:14:00,15.7,10.6,30.35,ESE,105,1.8,1.8,80,0.00,,---,0.00,VWS V14.01,2013-02-21 01:14:00,
2013-02-20 19:19:00,15.7,10.6,30.35,ESE,105,0.0,0.0,80,0.00,,---,0.00,VWS V14.01,2013-02-21 01:19:00,
2013-02-20 19:24:00,15.7,10.4,30.35,ESE,108,0.0,0.0,79,0.00,,---,0.00,VWS V14.01,2013-02-21 01:24:00,
2013-02-20 19:29:00,15.8,10.5,30.34,NNW,333,0.0,0.0,79,0.00,,---,0.00,VWS V14.01,2013-02-21 01:29:00,
2013-02-20 19:34:00,15.6,10.0,30.35,NNW,333,0.0,0.0,78,0.00,,---,0.00,VWS V14.01,2013-02-21 01:34:00,
2013-02-20 19:39:00,15.2,9.6,30.35,NNW,333,0.0,0.0,78,0.00,,---,0.00,VWS V14.01,2013-02-21 01:39:00,
2013-02-20 19:44:00,14.9,9.3,30.35,NNW,333,0.0,0.0,78,0.00,,---,0.00,VWS V14.01,2013-02-21 01:44:00,
2013-02-20 19:49:00,14.6,9.3,30.35,NNW,333,0.0,0.0,79,0.00,,---,0.00,VWS V14.01,2013-02-21 01:49:00,
2013-02-20 19:54:00,14.4,9.1,30.35,NNW,333,0.0,0.0,79,0.00,,---,0.00,VWS V14.01,2013-02-21 01:54:00,
2013-02-20 19:59:00,14.2,8.9,30.35,NNW,333,0.0,0.0,79,0.00,,---,0.00,VWS V14.01,2013-02-21 01:59:00,
2013-02-20 20:04:00,14.1,8.8,30.35,NNW,333,0.0,0.0,79,0.00,,---,0.00,VWS V14.01,2013-02-21 02:04:00,
2013-02-20 20:09:00,14.1,8.8,30.35,North,359,0.0,0.0,79,0.00,,---,0.00,VWS V14.01,2013-02-21 02:09:00,
2013-02-20 20:14:00,14.2,8.9,30.35,ESE,107,0.0,0.0,79,0.00,,---,0.00,VWS V14.01,2013-02-21 02:14:00,
2013-02-20 20:19:00,14.2,8.9,30.35,ESE,108,0.0,0.0,79,0.00,,---,0.00,VWS V14.01,2013-02-21 02:19:00,
2013-02-20 20:24:00,14.1,8.8,30.35,ESE,108,0.0,0.0,79,0.00,,---,0.00,VWS V14.01,2013-02-21 02:24:00,
2013-02-20 20:29:00,13.9,8.6,30.35,ESE,108,0.0,0.0,79,0.00,,---,0.00,VWS V14.01,2013-02-21 02:29:00,
2013-02-20 20:34:00,13.9,8.6,30.35,ESE,108,0.0,0.0,79,0.00,,---,0.00,VWS V14.01,2013-02-21 02:34:00,
2013-02-20 20:39:00,13.8,8.5,30.35,ESE,109,0.0,0.0,79,0.00,,---,0.00,VWS V14.01,2013-02-21 02:39:00,
2013-02-20 20:44:00,13.5,8.2,30.35,ESE,108,0.0,0.0,79,0.00,,---,0.00,VWS V14.01,2013-02-21 02:44:00,
2013-02-20 20:48:00,13.6,8.6,30.35,ESE,109,0.0,0.0,80,0.00,,---,0.00,VWS V14.01,2013-02-21 02:48:00,
2013-02-20 20:53:00,13.4,8.4,30.35,ESE,108,0.0,0.0,80,0.00,,---,0.00,VWS V14.01,2013-02-21 02:53:00,
2013-02-20 20:58:00,13.3,8.3,30.35,ESE,109,0.0,0.0,80,0.00,,---,0.00,VWS V14.01,2013-02-21 02:58:00,
2013-02-20 21:04:00,13.1,8.1,30.35,ESE,108,0.0,0.0,80,0.00,,---,0.00,VWS V14.01,2013-02-21 03:04:00,
2013-02-20 21:09:00,12.8,7.8,30.35,ESE,108,0.0,0.0,80,0.00,,---,0.00,VWS V14.01,2013-02-21 03:09:00,
2013-02-20 21:14:00,12.7,7.7,30.35,ESE,108,0.0,0.0,80,0.00,,---,0.00,VWS V14.01,2013-02-21 03:14:00,
2013-02-20 21:19:00,12.7,8.0,30.35,ESE,109,0.0,0.0,81,0.00,,---,0.00,VWS V14.01,2013-02-21 03:19:00,
2013-02-20 21:23:00,12.8,8.1,30.34,ESE,108,0.0,0.0,81,0.00,,---,0.00,VWS V14.01,2013-02-21 03:23:00,
2013-02-20 21:28:00,12.8,8.1,30.35,ESE,109,0.0,0.0,81,0.00,,---,0.00,VWS V14.01,2013-02-21 03:28:00,
2013-02-20 21:33:00,12.8,8.1,30.34,ESE,108,0.0,0.0,81,0.00,,---,0.00,VWS V14.01,2013-02-21 03:33:00,
2013-02-20 21:38:00,12.8,8.1,30.35,ESE,109,0.0,0.0,81,0.00,,---,0.00,VWS V14.01,2013-02-21 03:38:00,
2013-02-20 21:43:00,12.9,8.2,30.35,ESE,109,0.0,0.0,81,0.00,,---,0.00,VWS V14.01,2013-02-21 03:43:00,
2013-02-20 21:48:00,12.9,8.2,30.36,ESE,108,0.0,0.0,81,0.00,,---,0.00,VWS V14.01,2013-02-21 03:48:00,
2013-02-20 21:53:00,12.7,8.0,30.36,ESE,109,0.0,0.0,81,0.00,,---,0.00,VWS V14.01,2013-02-21 03:53:00,
2013-02-20 21:58:00,12.7,8.0,30.37,ESE,109,0.0,0.0,81,0.00,,---,0.00,VWS V14.01,2013-02-21 03:58:00,
2013-02-20 22:03:00,12.7,7.7,30.37,ESE,109,0.0,0.0,80,0.00,,---,0.00,VWS V14.01,2013-02-21 04:03:00,
2013-02-20 22:08:00,12.7,8.0,30.37,ESE,108,0.0,0.0,81,0.00,,---,0.00,VWS V14.01,2013-02-21 04:08:00,
2013-02-20 22:13:00,12.8,8.1,30.37,ESE,108,0.0,0.0,81,0.00,,---,0.00,VWS V14.01,2013-02-21 04:13:00,
2013-02-20 22:18:00,12.7,7.7,30.37,ESE,109,0.0,0.0,80,0.00,,---,0.00,VWS V14.01,2013-02-21 04:18:00,
2013-02-20 22:23:00,12.7,8.0,30.37,ESE,109,0.0,0.0,81,0.00,,---,0.00,VWS V14.01,2013-02-21 04:23:00,
2013-02-20 22:28:00,12.7,8.0,30.37,ESE,108,0.0,0.0,81,0.00,,---,0.00,VWS V14.01,2013-02-21 04:28:00,
2013-02-20 22:33:00,12.6,7.9,30.38,ESE,108,0.0,0.0,81,0.00,,---,0.00,VWS V14.01,2013-02-21 04:33:00,
2013-02-20 22:38:00,12.6,8.1,30.38,ESE,109,0.0,0.0,82,0.00,,---,0.00,VWS V14.01,2013-02-21 04:38:00,
2013-02-20 22:43:00,12.6,8.1,30.37,ESE,109,0.0,0.0,82,0.00,,---,0.00,VWS V14.01,2013-02-21 04:43:00,
2013-02-20 22:48:00,12.5,8.0,30.37,ESE,109,0.0,0.0,82,0.00,,---,0.00,VWS V14.01,2013-02-21 04:48:00,
2013-02-20 22:53:00,12.3,7.6,30.37,ESE,109,0.0,0.0,81,0.00,,---,0.00,VWS V14.01,2013-02-21 04:53:00,
2013-02-20 22:58:00,12.3,7.8,30.37,ESE,109,0.0,0.0,82,0.00,,---,0.00,VWS V14.01,2013-02-21 04:58:00,
2013-02-20 23:00:00,12.3,7.8,30.37,ESE,109,0.0,0.0,82,0.00,,---,0.00,VWS V14.01,2013-02-21 05:00:00,
2013-02-20 23:05:00,12.2,7.7,30.37,ESE,108,0.0,0.0,82,0.00,,---,0.00,VWS V14.01,2013-02-21 05:05:00,
2013-02-20 23:10:00,12.0,7.5,30.37,ESE,108,0.0,0.0,82,0.00,,---,0.00,VWS V14.01,2013-02-21 05:10:00,
2013-02-20 23:15:00,11.9,7.4,30.37,ESE,109,0.0,0.0,82,0.00,,---,0.00,VWS V14.01,2013-02-21 05:15:00,
2013-02-20 23:20:00,11.8,7.3,30.37,ESE,108,0.0,0.0,82,0.00,,---,0.00,VWS V14.01,2013-02-21 05:20:00,
2013-02-20 23:25:00,11.9,7.7,30.37,ESE,109,0.0,0.0,83,0.00,,---,0.00,VWS V14.01,2013-02-21 05:25:00,
2013-02-20 23:30:00,12.0,7.8,30.37,ESE,109,0.0,0.0,83,0.00,,---,0.00,VWS V14.01,2013-02-21 05:30:00,
2013-02-20 23:35:00,12.0,7.8,30.37,ESE,109,0.0,0.0,83,0.00,,---,0.00,VWS V14.01,2013-02-21 05:35:00,
2013-02-20 23:40:00,12.1,7.9,30.37,ESE,108,0.0,0.0,83,0.00,,---,0.00,VWS V14.01,2013-02-21 05:40:00,
2013-02-20 23:45:00,12.1,7.9,30.37,ESE,108,0.0,0.0,83,0.00,,---,0.00,VWS V14.01,2013-02-21 05:45:00,
2013-02-20 23:50:00,12.2,8.0,30.37,ESE,108,0.0,0.0,83,0.00,,---,0.00,VWS V14.01,2013-02-21 05:50:00,
2013-02-20 23:55:00,12.3,8.1,30.37,ESE,108,0.0,0.0,83,0.00,,---,0.00,VWS V14.01,2013-02-21 05:55:00,